sensor_id;sensor_type;location;lat;lon;timestamp;pressure;altitude;pressure_sealevel;temperature;humidity
32033;BME280;31720;52.638;9.216;2022-12-07T00:02:53;101113.25;;;3.64;100.00
32033;BME280;31720;52.638;9.216;2022-12-07T00:05:58;101116.66;;;3.66;100.00
32033;BME280;31720;52.638;9.216;2022-12-07T00:09:00;101114.03;;;3.67;100.00
32033;BME280;31720;52.638;9.216;2022-12-07T00:12:02;101101.00;;;3.70;100.00
32033;BME280;31720;52.638;9.216;2022-12-07T00:15:04;101105.34;;;3.70;100.00
32033;BME280;31720;52.638;9.216;2022-12-07T00:18:05;101104.47;;;3.69;100.00
32033;BME280;31720;52.638;9.216;2022-12-07T00:21:10;101099.25;;;3.71;100.00
32033;BME280;31720;52.638;9.216;2022-12-07T00:24:12;101102.78;;;3.67;100.00
32033;BME280;31720;52.638;9.216;2022-12-07T00:27:13;101094.09;;;3.68;100.00
32033;BME280;31720;52.638;9.216;2022-12-07T00:30:15;101095.75;;;3.73;100.00
32033;BME280;31720;52.638;9.216;2022-12-07T00:33:16;101104.25;;;3.81;100.00
32033;BME280;31720;52.638;9.216;2022-12-07T00:36:21;101094.72;;;3.80;100.00
32033;BME280;31720;52.638;9.216;2022-12-07T00:39:22;101088.66;;;3.81;100.00
32033;BME280;31720;52.638;9.216;2022-12-07T00:42:24;101092.88;;;3.87;100.00
32033;BME280;31720;52.638;9.216;2022-12-07T00:45:25;101085.03;;;3.89;100.00
32033;BME280;31720;52.638;9.216;2022-12-07T00:48:27;101080.56;;;3.95;100.00
32033;BME280;31720;52.638;9.216;2022-12-07T00:51:30;101079.72;;;3.93;100.00
32033;BME280;31720;52.638;9.216;2022-12-07T00:54:31;101068.56;;;3.88;100.00
32033;BME280;31720;52.638;9.216;2022-12-07T00:57:32;101066.81;;;3.89;100.00
32033;BME280;31720;52.638;9.216;2022-12-07T01:00:35;101061.53;;;3.93;100.00
32033;BME280;31720;52.638;9.216;2022-12-07T01:03:37;101053.81;;;3.89;100.00
32033;BME280;31720;52.638;9.216;2022-12-07T01:06:40;101063.50;;;3.82;100.00
32033;BME280;31720;52.638;9.216;2022-12-07T01:09:41;101066.22;;;3.76;100.00
32033;BME280;31720;52.638;9.216;2022-12-07T01:12:43;101058.50;;;3.73;100.00
32033;BME280;31720;52.638;9.216;2022-12-07T01:15:44;101061.09;;;3.71;100.00
32033;BME280;31720;52.638;9.216;2022-12-07T01:18:47;101066.34;;;3.70;100.00
32033;BME280;31720;52.638;9.216;2022-12-07T01:21:50;101068.19;;;3.65;100.00
32033;BME280;31720;52.638;9.216;2022-12-07T01:24:51;101066.53;;;3.61;100.00
32033;BME280;31720;52.638;9.216;2022-12-07T01:27:53;101067.41;;;3.60;100.00
32033;BME280;31720;52.638;9.216;2022-12-07T01:30:56;101067.41;;;3.60;100.00
32033;BME280;31720;52.638;9.216;2022-12-07T01:33:59;101059.63;;;3.60;100.00
32033;BME280;31720;52.638;9.216;2022-12-07T01:37:02;101061.34;;;3.61;100.00
32033;BME280;31720;52.638;9.216;2022-12-07T01:40:04;101058.78;;;3.58;100.00
32033;BME280;31720;52.638;9.216;2022-12-07T01:43:13;101060.53;;;3.57;100.00
32033;BME280;31720;52.638;9.216;2022-12-07T01:46:15;101060.56;;;3.54;100.00
32033;BME280;31720;52.638;9.216;2022-12-07T01:49:24;101057.06;;;3.56;100.00
32033;BME280;31720;52.638;9.216;2022-12-07T01:52:30;101056.19;;;3.58;100.00
32033;BME280;31720;52.638;9.216;2022-12-07T01:55:34;101058.06;;;3.51;100.00
32033;BME280;31720;52.638;9.216;2022-12-07T01:58:38;101051.97;;;3.52;100.00
32033;BME280;31720;52.638;9.216;2022-12-07T02:01:39;101048.66;;;3.45;100.00
32033;BME280;31720;52.638;9.216;2022-12-07T02:04:41;101043.50;;;3.42;100.00
32033;BME280;31720;52.638;9.216;2022-12-07T02:07:46;101045.16;;;3.45;100.00
32033;BME280;31720;52.638;9.216;2022-12-07T02:10:49;101046.94;;;3.43;100.00
32033;BME280;31720;52.638;9.216;2022-12-07T02:13:51;101034.84;;;3.42;100.00
32033;BME280;31720;52.638;9.216;2022-12-07T02:17:03;101035.84;;;3.35;100.00
32033;BME280;31720;52.638;9.216;2022-12-07T02:20:20;101040.22;;;3.33;100.00
32033;BME280;31720;52.638;9.216;2022-12-07T02:23:41;101030.75;;;3.30;100.00
32033;BME280;31720;52.638;9.216;2022-12-07T02:30:31;101041.28;;;3.21;100.00
32033;BME280;31720;52.638;9.216;2022-12-07T02:33:37;101039.63;;;3.18;100.00
32033;BME280;31720;52.638;9.216;2022-12-07T02:36:46;101035.28;;;3.19;100.00
32033;BME280;31720;52.638;9.216;2022-12-07T02:39:54;101032.69;;;3.19;100.00
32033;BME280;31720;52.638;9.216;2022-12-07T02:43:02;101035.38;;;3.13;100.00
32033;BME280;31720;52.638;9.216;2022-12-07T02:46:10;101037.13;;;3.12;100.00
32033;BME280;31720;52.638;9.216;2022-12-07T02:49:14;101038.00;;;3.11;100.00
32033;BME280;31720;52.638;9.216;2022-12-07T02:52:16;101029.19;;;3.20;100.00
32033;BME280;31720;52.638;9.216;2022-12-07T02:55:19;101036.22;;;3.15;100.00
32033;BME280;31720;52.638;9.216;2022-12-07T02:58:34;101023.28;;;3.12;100.00
32033;BME280;31720;52.638;9.216;2022-12-07T03:01:48;101026.78;;;3.11;100.00
32033;BME280;31720;52.638;9.216;2022-12-07T03:04:58;101025.22;;;3.00;100.00
32033;BME280;31720;52.638;9.216;2022-12-07T03:08:10;101026.13;;;2.98;100.00
32033;BME280;31720;52.638;9.216;2022-12-07T03:11:14;101017.53;;;2.94;100.00
32033;BME280;31720;52.638;9.216;2022-12-07T03:14:21;101020.22;;;2.90;100.00
32033;BME280;31720;52.638;9.216;2022-12-07T03:17:27;101022.81;;;2.91;100.00
32033;BME280;31720;52.638;9.216;2022-12-07T03:20:32;101019.44;;;2.86;100.00
32033;BME280;31720;52.638;9.216;2022-12-07T03:23:39;101021.22;;;2.83;100.00
32033;BME280;31720;52.638;9.216;2022-12-07T03:26:44;101027.34;;;2.77;100.00
32033;BME280;31720;52.638;9.216;2022-12-07T03:29:50;101028.22;;;2.76;100.00
32033;BME280;31720;52.638;9.216;2022-12-07T03:32:59;101027.41;;;2.74;100.00
32033;BME280;31720;52.638;9.216;2022-12-07T03:36:07;101021.38;;;2.72;100.00
32033;BME280;31720;52.638;9.216;2022-12-07T03:39:17;101013.75;;;2.63;100.00
32033;BME280;31720;52.638;9.216;2022-12-07T03:42:20;101007.69;;;2.64;100.00
32033;BME280;31720;52.638;9.216;2022-12-07T03:45:25;101004.22;;;2.65;100.00
32033;BME280;31720;52.638;9.216;2022-12-07T03:48:35;101001.66;;;2.62;100.00
32033;BME280;31720;52.638;9.216;2022-12-07T03:51:42;101010.22;;;2.68;100.00
32033;BME280;31720;52.638;9.216;2022-12-07T03:54:48;101014.59;;;2.63;100.00
32033;BME280;31720;52.638;9.216;2022-12-07T03:57:53;101012.78;;;2.70;100.00
32033;BME280;31720;52.638;9.216;2022-12-07T04:00:56;101026.56;;;2.73;100.00
32033;BME280;31720;52.638;9.216;2022-12-07T04:03:59;101016.22;;;2.70;100.00
32033;BME280;31720;52.638;9.216;2022-12-07T04:07:00;101018.00;;;2.68;100.00
32033;BME280;31720;52.638;9.216;2022-12-07T04:10:02;101019.72;;;2.68;100.00
32033;BME280;31720;52.638;9.216;2022-12-07T04:13:04;101011.97;;;2.66;100.00
32033;BME280;31720;52.638;9.216;2022-12-07T04:16:05;101019.63;;;2.72;100.00
32033;BME280;31720;52.638;9.216;2022-12-07T04:19:09;101028.34;;;2.70;100.00
32033;BME280;31720;52.638;9.216;2022-12-07T04:22:10;101020.56;;;2.70;100.00
32033;BME280;31720;52.638;9.216;2022-12-07T04:25:12;101017.19;;;2.63;100.00
32033;BME280;31720;52.638;9.216;2022-12-07T04:28:13;101018.00;;;2.68;100.00
32033;BME280;31720;52.638;9.216;2022-12-07T04:31:14;101024.97;;;2.63;100.00
32033;BME280;31720;52.638;9.216;2022-12-07T04:34:18;101021.53;;;2.63;100.00
32033;BME280;31720;52.638;9.216;2022-12-07T04:37:20;101025.91;;;2.61;100.00
32033;BME280;31720;52.638;9.216;2022-12-07T04:40:21;101031.16;;;2.56;100.00
32033;BME280;31720;52.638;9.216;2022-12-07T04:43:22;101021.72;;;2.52;100.00
32033;BME280;31720;52.638;9.216;2022-12-07T04:46:25;101024.38;;;2.47;100.00
32033;BME280;31720;52.638;9.216;2022-12-07T04:49:28;101018.34;;;2.47;100.00
32033;BME280;31720;52.638;9.216;2022-12-07T04:52:29;101019.22;;;2.46;100.00
32033;BME280;31720;52.638;9.216;2022-12-07T04:55:31;101015.81;;;2.42;100.00
32033;BME280;31720;52.638;9.216;2022-12-07T04:58:32;101014.81;;;2.49;100.00
32033;BME280;31720;52.638;9.216;2022-12-07T05:01:34;101014.00;;;2.47;100.00
32033;BME280;31720;52.638;9.216;2022-12-07T05:04:37;101014.88;;;2.46;100.00
32033;BME280;31720;52.638;9.216;2022-12-07T05:07:38;101013.13;;;2.50;100.00
32033;BME280;31720;52.638;9.216;2022-12-07T05:10:39;101020.84;;;2.51;100.00
32033;BME280;31720;52.638;9.216;2022-12-07T05:13:41;101030.34;;;2.52;100.00
32033;BME280;31720;52.638;9.216;2022-12-07T05:16:44;101019.94;;;2.56;100.00
32033;BME280;31720;52.638;9.216;2022-12-07T05:19:47;101020.81;;;2.54;100.00
32033;BME280;31720;52.638;9.216;2022-12-07T05:22:49;101022.63;;;2.48;100.00
32033;BME280;31720;52.638;9.216;2022-12-07T05:25:50;101019.22;;;2.44;100.00
32033;BME280;31720;52.638;9.216;2022-12-07T05:28:52;101023.66;;;2.38;100.00
32033;BME280;31720;52.638;9.216;2022-12-07T05:31:53;101018.44;;;2.41;100.00
32033;BME280;31720;52.638;9.216;2022-12-07T05:34:56;101016.78;;;2.35;100.00
32033;BME280;31720;52.638;9.216;2022-12-07T05:37:57;101023.63;;;2.39;100.00
32033;BME280;31720;52.638;9.216;2022-12-07T05:41:00;101017.53;;;2.43;100.00
32033;BME280;31720;52.638;9.216;2022-12-07T05:44:02;101019.22;;;2.46;100.00
32033;BME280;31720;52.638;9.216;2022-12-07T05:47:04;101016.63;;;2.44;100.00
32033;BME280;31720;52.638;9.216;2022-12-07T05:50:07;101017.50;;;2.45;100.00
32033;BME280;31720;52.638;9.216;2022-12-07T05:53:09;101025.19;;;2.51;100.00
32033;BME280;31720;52.638;9.216;2022-12-07T05:56:10;101013.06;;;2.51;100.00
32033;BME280;31720;52.638;9.216;2022-12-07T05:59:12;101008.84;;;2.46;100.00
32033;BME280;31720;52.638;9.216;2022-12-07T06:02:27;101009.75;;;2.43;100.00
32033;BME280;31720;52.638;9.216;2022-12-07T06:05:30;101002.91;;;2.38;100.00
32033;BME280;31720;52.638;9.216;2022-12-07T06:08:31;101007.25;;;2.37;100.00
32033;BME280;31720;52.638;9.216;2022-12-07T06:11:33;100992.50;;;2.41;100.00
32033;BME280;31720;52.638;9.216;2022-12-07T06:14:52;101003.72;;;2.41;100.00
32033;BME280;31720;52.638;9.216;2022-12-07T06:17:53;101000.31;;;2.36;100.00
32033;BME280;31720;52.638;9.216;2022-12-07T06:20:56;101003.81;;;2.37;100.00
32033;BME280;31720;52.638;9.216;2022-12-07T06:23:57;101004.72;;;2.31;100.00
32033;BME280;31720;52.638;9.216;2022-12-07T06:26:59;101009.13;;;2.27;100.00
32033;BME280;31720;52.638;9.216;2022-12-07T06:30:00;101011.72;;;2.27;100.00
32033;BME280;31720;52.638;9.216;2022-12-07T06:33:06;101005.72;;;2.22;100.00
32033;BME280;31720;52.638;9.216;2022-12-07T06:36:09;101003.13;;;2.24;100.00
32033;BME280;31720;52.638;9.216;2022-12-07T06:39:11;101009.22;;;2.21;100.00
32033;BME280;31720;52.638;9.216;2022-12-07T06:42:13;101015.19;;;2.26;100.00
32033;BME280;31720;52.638;9.216;2022-12-07T06:45:14;101016.03;;;2.28;100.00
32033;BME280;31720;52.638;9.216;2022-12-07T06:48:16;101013.41;;;2.30;100.00
32033;BME280;31720;52.638;9.216;2022-12-07T06:51:19;101015.97;;;2.32;100.00
32033;BME280;31720;52.638;9.216;2022-12-07T06:54:20;101010.06;;;2.22;100.00
32033;BME280;31720;52.638;9.216;2022-12-07T06:57:21;101024.75;;;2.23;100.00
32033;BME280;31720;52.638;9.216;2022-12-07T07:00:23;101022.06;;;2.29;100.00
32033;BME280;31720;52.638;9.216;2022-12-07T07:03:24;101022.84;;;2.34;100.00
32033;BME280;31720;52.638;9.216;2022-12-07T07:06:27;101016.84;;;2.32;100.00
32033;BME280;31720;52.638;9.216;2022-12-07T07:09:29;101020.22;;;2.36;100.00
32033;BME280;31720;52.638;9.216;2022-12-07T07:12:30;101014.19;;;2.37;100.00
32033;BME280;31720;52.638;9.216;2022-12-07T07:15:32;101025.31;;;2.43;100.00
32033;BME280;31720;52.638;9.216;2022-12-07T07:18:34;101020.19;;;2.39;100.00
32033;BME280;31720;52.638;9.216;2022-12-07T07:21:37;101021.03;;;2.41;100.00
32033;BME280;31720;52.638;9.216;2022-12-07T07:24:38;101030.53;;;2.42;100.00
32033;BME280;31720;52.638;9.216;2022-12-07T07:27:40;101031.41;;;2.39;100.00
32033;BME280;31720;52.638;9.216;2022-12-07T07:30:42;101028.75;;;2.45;100.00
32033;BME280;31720;52.638;9.216;2022-12-07T07:33:45;101029.75;;;2.37;100.00
32033;BME280;31720;52.638;9.216;2022-12-07T07:36:48;101029.75;;;2.35;100.00
32033;BME280;31720;52.638;9.216;2022-12-07T07:39:49;101046.94;;;2.42;100.00
32033;BME280;31720;52.638;9.216;2022-12-07T07:42:52;101033.19;;;2.37;100.00
32033;BME280;31720;52.638;9.216;2022-12-07T07:45:53;101047.00;;;2.38;100.00
32033;BME280;31720;52.638;9.216;2022-12-07T07:48:55;101049.59;;;2.38;100.00
32033;BME280;31720;52.638;9.216;2022-12-07T07:51:58;101049.59;;;2.36;100.00
32033;BME280;31720;52.638;9.216;2022-12-07T07:54:59;101046.19;;;2.34;100.00
32033;BME280;31720;52.638;9.216;2022-12-07T07:58:01;101046.22;;;2.33;100.00
32033;BME280;31720;52.638;9.216;2022-12-07T08:01:05;101047.00;;;2.38;100.00
32033;BME280;31720;52.638;9.216;2022-12-07T08:04:07;101046.91;;;2.44;100.00
32033;BME280;31720;52.638;9.216;2022-12-07T08:07:10;101037.44;;;2.40;100.00
32033;BME280;31720;52.638;9.216;2022-12-07T08:10:14;101038.25;;;2.45;100.00
32033;BME280;31720;52.638;9.216;2022-12-07T08:13:16;101047.69;;;2.49;100.00
32033;BME280;31720;52.638;9.216;2022-12-07T08:16:17;101045.19;;;2.43;100.00
32033;BME280;31720;52.638;9.216;2022-12-07T08:19:19;101057.28;;;2.45;100.00
32033;BME280;31720;52.638;9.216;2022-12-07T08:22:22;101046.94;;;2.42;100.00
32033;BME280;31720;52.638;9.216;2022-12-07T08:25:23;101046.88;;;2.47;100.00
32033;BME280;31720;52.638;9.216;2022-12-07T08:28:25;101047.75;;;2.44;100.00
32033;BME280;31720;52.638;9.216;2022-12-07T08:31:26;101045.19;;;2.43;100.00
32033;BME280;31720;52.638;9.216;2022-12-07T08:34:28;101043.50;;;2.42;100.00
32033;BME280;31720;52.638;9.216;2022-12-07T08:37:32;101040.03;;;2.40;100.00
32033;BME280;31720;52.638;9.216;2022-12-07T08:40:33;101033.09;;;2.43;100.00
32033;BME280;31720;52.638;9.216;2022-12-07T08:43:36;101032.16;;;2.47;100.00
32033;BME280;31720;52.638;9.216;2022-12-07T08:46:40;101045.09;;;2.49;100.00
32033;BME280;31720;52.638;9.216;2022-12-07T08:49:47;101046.84;;;2.48;100.00
32033;BME280;31720;52.638;9.216;2022-12-07T08:52:53;101042.44;;;2.55;100.00
32033;BME280;31720;52.638;9.216;2022-12-07T08:55:56;101041.44;;;2.62;100.00
32033;BME280;31720;52.638;9.216;2022-12-07T08:58:58;101046.50;;;2.70;100.00
32033;BME280;31720;52.638;9.216;2022-12-07T09:01:59;101050.81;;;2.71;100.00
32033;BME280;31720;52.638;9.216;2022-12-07T09:05:01;101052.59;;;2.69;100.00
32033;BME280;31720;52.638;9.216;2022-12-07T09:08:04;101048.22;;;2.71;100.00
32033;BME280;31720;52.638;9.216;2022-12-07T09:11:06;101048.31;;;2.63;100.00
32033;BME280;31720;52.638;9.216;2022-12-07T09:14:08;101043.13;;;2.63;100.00
32033;BME280;31720;52.638;9.216;2022-12-07T09:17:11;101050.00;;;2.67;100.00
32033;BME280;31720;52.638;9.216;2022-12-07T09:20:13;101051.81;;;2.64;100.00
32033;BME280;31720;52.638;9.216;2022-12-07T09:23:17;101048.94;;;2.79;100.00
32033;BME280;31720;52.638;9.216;2022-12-07T09:26:18;101049.69;;;2.86;100.00
32033;BME280;31720;52.638;9.216;2022-12-07T09:29:19;101043.44;;;2.97;100.00
32033;BME280;31720;52.638;9.216;2022-12-07T09:32:21;101045.84;;;3.08;100.00
32033;BME280;31720;52.638;9.216;2022-12-07T09:35:24;101060.50;;;3.12;100.00
32033;BME280;31720;52.638;9.216;2022-12-07T09:38:27;101068.28;;;3.14;100.00
32033;BME280;31720;52.638;9.216;2022-12-07T09:41:30;101055.25;;;3.15;100.00
32033;BME280;31720;52.638;9.216;2022-12-07T09:44:34;101068.25;;;3.15;100.00
32033;BME280;31720;52.638;9.216;2022-12-07T09:47:36;101060.41;;;3.17;100.00
32033;BME280;31720;52.638;9.216;2022-12-07T09:50:37;101074.28;;;3.16;100.00
32033;BME280;31720;52.638;9.216;2022-12-07T09:53:41;101067.38;;;3.13;100.00
32033;BME280;31720;52.638;9.216;2022-12-07T09:56:43;101061.44;;;3.08;100.00
32033;BME280;31720;52.638;9.216;2022-12-07T09:59:45;101065.84;;;3.03;100.00
32033;BME280;31720;52.638;9.216;2022-12-07T10:02:50;101075.50;;;2.96;100.00
32033;BME280;31720;52.638;9.216;2022-12-07T10:05:54;101071.25;;;2.91;100.00
32033;BME280;31720;52.638;9.216;2022-12-07T10:08:57;101059.22;;;2.85;100.00
32033;BME280;31720;52.638;9.216;2022-12-07T10:12:00;101054.13;;;2.79;100.00
32033;BME280;31720;52.638;9.216;2022-12-07T10:15:04;101055.81;;;2.83;100.00
32033;BME280;31720;52.638;9.216;2022-12-07T10:18:17;101071.38;;;2.83;100.00
32033;BME280;31720;52.638;9.216;2022-12-07T10:21:20;101083.50;;;2.81;100.00
32033;BME280;31720;52.638;9.216;2022-12-07T10:24:25;101073.19;;;2.76;100.00
32033;BME280;31720;52.638;9.216;2022-12-07T10:27:30;101061.22;;;2.69;100.00
32033;BME280;31720;52.638;9.216;2022-12-07T10:30:33;101057.84;;;2.64;100.00
32033;BME280;31720;52.638;9.216;2022-12-07T10:33:36;101052.72;;;2.58;100.00
32033;BME280;31720;52.638;9.216;2022-12-07T10:36:38;101056.47;;;2.40;100.00
32033;BME280;31720;52.638;9.216;2022-12-07T10:39:43;101051.25;;;2.43;100.00
32033;BME280;31720;52.638;9.216;2022-12-07T10:43:00;101046.16;;;2.37;100.00
32033;BME280;31720;52.638;9.216;2022-12-07T10:50:10;101023.66;;;2.38;100.00
32033;BME280;31720;52.638;9.216;2022-12-07T10:53:26;101023.53;;;2.47;100.00
32033;BME280;31720;52.638;9.216;2022-12-07T10:56:56;101024.31;;;2.52;100.00
32033;BME280;31720;52.638;9.216;2022-12-07T11:00:09;101017.19;;;2.63;100.00
32033;BME280;31720;52.638;9.216;2022-12-07T11:03:30;101017.94;;;2.73;100.00
32033;BME280;31720;52.638;9.216;2022-12-07T11:06:39;101007.47;;;2.76;100.00
32033;BME280;31720;52.638;9.216;2022-12-07T11:09:52;101018.69;;;2.76;100.00
32033;BME280;31720;52.638;9.216;2022-12-07T11:13:23;101010.75;;;2.87;100.00
32033;BME280;31720;52.638;9.216;2022-12-07T11:16:47;101013.13;;;2.99;100.00
32033;BME280;31720;52.638;9.216;2022-12-07T11:20:02;101012.09;;;3.10;100.00
32033;BME280;31720;52.638;9.216;2022-12-07T11:23:17;101004.84;;;3.25;100.00
32033;BME280;31720;52.638;9.216;2022-12-07T11:26:34;101002.06;;;3.35;100.00
32033;BME280;31720;52.638;9.216;2022-12-07T11:30:00;101000.22;;;3.41;100.00
32033;BME280;31720;52.638;9.216;2022-12-07T11:33:22;100998.34;;;3.48;100.00
32033;BME280;31720;52.638;9.216;2022-12-07T11:36:37;100987.78;;;3.57;100.00
32033;BME280;31720;52.638;9.216;2022-12-07T11:39:45;100985.22;;;3.54;100.00
32033;BME280;31720;52.638;9.216;2022-12-07T11:42:52;100983.44;;;3.58;100.00
32033;BME280;31720;52.638;9.216;2022-12-07T11:46:00;100977.38;;;3.57;100.00
32033;BME280;31720;52.638;9.216;2022-12-07T11:49:11;100966.88;;;3.62;100.00
32033;BME280;31720;52.638;9.216;2022-12-07T11:52:20;100968.69;;;3.60;100.00
32033;BME280;31720;52.638;9.216;2022-12-07T11:55:26;100969.38;;;3.66;100.00
32033;BME280;31720;52.638;9.216;2022-12-07T11:58:41;100966.69;;;3.71;100.00
32033;BME280;31720;52.638;9.216;2022-12-07T12:01:53;100969.28;;;3.71;100.00
32033;BME280;31720;52.638;9.216;2022-12-07T12:05:07;100965.47;;;3.87;100.00
32033;BME280;31720;52.638;9.216;2022-12-07T12:08:16;100963.31;;;4.06;100.00
32033;BME280;31720;52.638;9.216;2022-12-07T12:11:30;100971.91;;;4.10;100.00
32033;BME280;31720;52.638;9.216;2022-12-07T12:14:46;100962.25;;;4.15;100.00
32033;BME280;31720;52.638;9.216;2022-12-07T12:18:07;100962.16;;;4.18;100.00
32033;BME280;31720;52.638;9.216;2022-12-07T12:21:15;100959.97;;;4.01;100.00
32033;BME280;31720;52.638;9.216;2022-12-07T12:24:22;100958.31;;;3.97;100.00
32033;BME280;31720;52.638;9.216;2022-12-07T12:27:27;100946.34;;;3.91;100.00
32033;BME280;31720;52.638;9.216;2022-12-07T12:30:34;100948.06;;;3.91;100.00
32033;BME280;31720;52.638;9.216;2022-12-07T12:33:38;100940.44;;;3.83;100.00
32033;BME280;31720;52.638;9.216;2022-12-07T12:36:45;100943.94;;;3.82;100.00
32033;BME280;31720;52.638;9.216;2022-12-07T12:43:47;100934.59;;;3.73;100.00
32033;BME280;31720;52.638;9.216;2022-12-07T12:46:52;100930.16;;;3.77;100.00
32033;BME280;31720;52.638;9.216;2022-12-07T12:50:16;100918.06;;;3.77;100.00
32033;BME280;31720;52.638;9.216;2022-12-07T12:53:21;100918.09;;;3.74;100.00
32033;BME280;31720;52.638;9.216;2022-12-07T12:56:35;100921.56;;;3.75;100.00
32033;BME280;31720;52.638;9.216;2022-12-07T12:59:41;100914.72;;;3.71;100.00
32033;BME280;31720;52.638;9.216;2022-12-07T13:02:48;100919.00;;;3.72;100.00
32033;BME280;31720;52.638;9.216;2022-12-07T13:06:17;100927.53;;;3.78;100.00
32033;BME280;31720;52.638;9.216;2022-12-07T13:09:22;100925.75;;;3.80;100.00
32033;BME280;31720;52.638;9.216;2022-12-07T13:12:25;100924.94;;;3.78;100.00
32033;BME280;31720;52.638;9.216;2022-12-07T13:15:34;100919.69;;;3.81;100.00
32033;BME280;31720;52.638;9.216;2022-12-07T13:18:37;100919.53;;;3.88;100.00
32033;BME280;31720;52.638;9.216;2022-12-07T13:21:43;100915.19;;;3.88;100.00
32033;BME280;31720;52.638;9.216;2022-12-07T13:24:46;100907.41;;;3.88;100.00
32033;BME280;31720;52.638;9.216;2022-12-07T13:27:54;100915.25;;;3.87;100.00
32033;BME280;31720;52.638;9.216;2022-12-07T13:31:04;100907.34;;;3.90;100.00
32033;BME280;31720;52.638;9.216;2022-12-07T13:34:30;100909.09;;;3.89;100.00
32033;BME280;31720;52.638;9.216;2022-12-07T13:37:33;100913.59;;;3.83;100.00
32033;BME280;31720;52.638;9.216;2022-12-07T13:40:35;100895.50;;;3.78;100.00
32033;BME280;31720;52.638;9.216;2022-12-07T13:43:43;100899.84;;;3.77;100.00
32033;BME280;31720;52.638;9.216;2022-12-07T13:46:51;100898.28;;;3.70;100.00
32033;BME280;31720;52.638;9.216;2022-12-07T13:49:54;100896.63;;;3.66;100.00
32033;BME280;31720;52.638;9.216;2022-12-07T13:52:59;100887.97;;;3.66;100.00
32033;BME280;31720;52.638;9.216;2022-12-07T13:56:01;100892.31;;;3.65;100.00
32033;BME280;31720;52.638;9.216;2022-12-07T13:59:04;100888.03;;;3.64;100.00
32033;BME280;31720;52.638;9.216;2022-12-07T14:02:18;100882.06;;;3.59;100.00
32033;BME280;31720;52.638;9.216;2022-12-07T14:05:24;100893.38;;;3.56;100.00
32033;BME280;31720;52.638;9.216;2022-12-07T14:08:29;100884.91;;;3.48;100.00
32033;BME280;31720;52.638;9.216;2022-12-07T14:11:31;100891.94;;;3.43;100.00
32033;BME280;31720;52.638;9.216;2022-12-07T14:14:32;100898.78;;;3.47;100.00
32033;BME280;31720;52.638;9.216;2022-12-07T14:17:34;100901.34;;;3.49;100.00
32033;BME280;31720;52.638;9.216;2022-12-07T14:20:37;100900.38;;;3.53;100.00
32033;BME280;31720;52.638;9.216;2022-12-07T14:23:40;100894.56;;;3.42;100.00
32033;BME280;31720;52.638;9.216;2022-12-07T14:26:43;100889.44;;;3.39;100.00
32033;BME280;31720;52.638;9.216;2022-12-07T14:29:44;100897.22;;;3.39;100.00
32033;BME280;31720;52.638;9.216;2022-12-07T14:32:48;100902.44;;;3.39;100.00
32033;BME280;31720;52.638;9.216;2022-12-07T14:35:50;100902.47;;;3.37;100.00
32033;BME280;31720;52.638;9.216;2022-12-07T14:38:56;100898.94;;;3.40;100.00
32033;BME280;31720;52.638;9.216;2022-12-07T14:41:59;100900.72;;;3.38;100.00
32033;BME280;31720;52.638;9.216;2022-12-07T14:45:01;100900.81;;;3.33;100.00
32033;BME280;31720;52.638;9.216;2022-12-07T14:48:02;100903.41;;;3.33;100.00
32033;BME280;31720;52.638;9.216;2022-12-07T14:51:04;100902.47;;;3.36;100.00
32033;BME280;31720;52.638;9.216;2022-12-07T14:54:15;100902.47;;;3.36;100.00
32033;BME280;31720;52.638;9.216;2022-12-07T14:57:17;100907.72;;;3.34;100.00
32033;BME280;31720;52.638;9.216;2022-12-07T15:00:20;100912.06;;;3.34;100.00
32033;BME280;31720;52.638;9.216;2022-12-07T15:03:22;100907.97;;;3.22;100.00
32033;BME280;31720;52.638;9.216;2022-12-07T15:06:24;100911.59;;;3.13;100.00
32033;BME280;31720;52.638;9.216;2022-12-07T15:09:26;100915.13;;;3.11;100.00
32033;BME280;31720;52.638;9.216;2022-12-07T15:12:28;100905.63;;;3.10;100.00
32033;BME280;31720;52.638;9.216;2022-12-07T15:15:29;100903.00;;;3.11;100.00
32033;BME280;31720;52.638;9.216;2022-12-07T15:18:31;100898.66;;;3.12;100.00
32033;BME280;31720;52.638;9.216;2022-12-07T15:21:32;100899.50;;;3.12;100.00
32033;BME280;31720;52.638;9.216;2022-12-07T15:24:35;100898.63;;;3.13;100.00
32033;BME280;31720;52.638;9.216;2022-12-07T15:27:36;100900.31;;;3.16;100.00
32033;BME280;31720;52.638;9.216;2022-12-07T15:30:38;100895.16;;;3.14;100.00
32033;BME280;31720;52.638;9.216;2022-12-07T15:33:40;100907.25;;;3.15;100.00
32033;BME280;31720;52.638;9.216;2022-12-07T15:36:41;100907.19;;;3.17;100.00
32033;BME280;31720;52.638;9.216;2022-12-07T15:39:44;100908.06;;;3.17;100.00
32033;BME280;31720;52.638;9.216;2022-12-07T15:42:46;100915.84;;;3.19;100.00
32033;BME280;31720;52.638;9.216;2022-12-07T15:45:49;100904.56;;;3.20;100.00
32033;BME280;31720;52.638;9.216;2022-12-07T15:48:49;100914.97;;;3.18;100.00
32033;BME280;31720;52.638;9.216;2022-12-07T15:51:51;100908.03;;;3.19;100.00
32033;BME280;31720;52.638;9.216;2022-12-07T15:54:54;100906.31;;;3.19;100.00
32033;BME280;31720;52.638;9.216;2022-12-07T15:57:55;100899.47;;;3.15;100.00
32033;BME280;31720;52.638;9.216;2022-12-07T16:00:57;100896.03;;;3.13;100.00
32033;BME280;31720;52.638;9.216;2022-12-07T16:03:58;100893.38;;;3.16;100.00
32033;BME280;31720;52.638;9.216;2022-12-07T16:07:00;100889.03;;;3.17;100.00
32033;BME280;31720;52.638;9.216;2022-12-07T16:10:04;100894.16;;;3.20;100.00
32033;BME280;31720;52.638;9.216;2022-12-07T16:13:05;100894.16;;;3.20;100.00
32033;BME280;31720;52.638;9.216;2022-12-07T16:16:09;100888.13;;;3.19;100.00
32033;BME280;31720;52.638;9.216;2022-12-07T16:19:12;100897.72;;;3.16;100.00